createdAt,value
2023-03-28T00:00:51.660Z,69.98
2023-03-28T00:03:22.735Z,69.79
2023-03-28T00:05:50.588Z,70.27
2023-03-28T00:08:18.668Z,70.45
2023-03-28T00:10:46.167Z,71.44
2023-03-28T00:13:14.437Z,70.46
2023-03-28T00:15:42.678Z,71.16
2023-03-28T00:18:13.076Z,71.55
2023-03-28T00:20:43.742Z,71.08
2023-03-28T00:23:12.410Z,69.55
2023-03-28T00:25:43.706Z,70.09
2023-03-28T00:28:10.494Z,71.29
2023-03-28T00:30:37.413Z,71.05
2023-03-28T00:33:06.365Z,70.29
2023-03-28T00:35:33.650Z,71.31
2023-03-28T00:38:00.468Z,71.78
2023-03-28T00:40:27.791Z,72.09
2023-03-28T00:42:55.241Z,74.78
2023-03-28T00:45:23.000Z,74.19
2023-03-28T00:47:59.148Z,72.89
2023-03-28T00:50:28.281Z,72.58
2023-03-28T00:53:02.026Z,72.78
2023-03-28T00:55:41.992Z,73.63
2023-03-28T00:58:11.798Z,73.20
2023-03-28T01:00:41.544Z,72.81
2023-03-28T01:03:09.283Z,72.19
2023-03-28T01:05:36.685Z,71.92
2023-03-28T01:08:09.023Z,72.43
2023-03-28T01:10:36.161Z,73.26
2023-03-28T01:13:06.264Z,72.97
2023-03-28T01:15:33.797Z,72.78
2023-03-28T01:18:03.209Z,72.78
2023-03-28T01:20:49.452Z,73.26
2023-03-28T01:23:37.369Z,73.14
2023-03-28T01:26:42.390Z,74.21
2023-03-28T01:29:29.704Z,73.25
2023-03-28T01:32:28.253Z,74.91
2023-03-28T01:35:39.253Z,73.62
2023-03-28T01:38:17.222Z,75.39
2023-03-28T01:41:05.745Z,75.37
2023-03-28T01:43:48.841Z,75.31
2023-03-28T01:46:28.846Z,75.01
2023-03-28T01:48:55.708Z,75.26
2023-03-28T01:51:46.089Z,74.65
2023-03-28T01:54:44.155Z,74.97
2023-03-28T01:57:23.633Z,75.68
2023-03-28T02:00:19.846Z,75.41
2023-03-28T02:03:19.013Z,75.86
2023-03-28T02:05:57.281Z,75.50
2023-03-28T02:08:27.308Z,78.19
2023-03-28T02:11:12.896Z,78.72
2023-03-28T02:14:09.836Z,81.17
2023-03-28T02:17:00.766Z,81.50
2023-03-28T02:20:11.911Z,81.01
2023-03-28T02:23:20.863Z,80.29
2023-03-28T02:25:57.575Z,81.20
2023-03-28T02:28:44.455Z,82.24
2023-03-28T02:31:32.724Z,80.98
2023-03-28T02:34:01.878Z,80.54
2023-03-28T08:07:17.262Z,60.63
2023-03-28T08:09:46.232Z,57.58
2023-03-28T08:12:19.805Z,54.75
2023-03-28T08:14:47.804Z,51.75
2023-03-28T08:17:18.403Z,50.37
2023-03-28T08:19:45.573Z,51.37
2023-03-28T08:22:12.726Z,50.52
2023-03-28T08:24:47.181Z,50.30
2023-03-28T08:27:23.024Z,48.20
2023-03-28T08:29:53.716Z,48.40
2023-03-28T08:32:20.993Z,47.21
2023-03-28T08:34:48.550Z,48.68
2023-03-28T08:37:18.084Z,47.66
2023-03-28T08:39:48.258Z,44.08
2023-03-28T08:42:34.568Z,42.99
2023-03-28T08:45:16.880Z,43.27
2023-03-28T08:48:01.086Z,42.77
2023-03-28T08:50:36.735Z,44.46
2023-03-28T08:53:04.854Z,42.58
2023-03-28T08:55:35.952Z,42.68
2023-03-28T08:58:03.859Z,42.44
2023-03-28T09:00:33.712Z,44.40
2023-03-28T09:03:01.176Z,41.52
2023-03-28T09:05:40.741Z,40.91
2023-03-28T09:08:23.538Z,42.19
2023-03-28T09:11:23.336Z,41.83
2023-03-28T09:13:50.464Z,40.55
2023-03-28T09:16:25.379Z,41.52
2023-03-28T09:19:15.594Z,39.83
2023-03-28T09:21:46.324Z,37.27
2023-03-28T09:24:23.897Z,37.86
2023-03-28T09:27:26.876Z,38.65
2023-03-28T09:30:19.224Z,37.32
2023-03-28T09:32:49.761Z,34.35
2023-03-28T09:35:21.843Z,38.04
2023-03-28T09:37:54.920Z,37.89
2023-03-28T09:40:26.669Z,36.11
2023-03-28T09:43:58.607Z,36.58
2023-03-28T09:46:47.187Z,36.41
2023-03-28T09:49:25.409Z,36.11
2023-03-28T09:51:59.458Z,36.40
2023-03-28T09:54:36.088Z,37.32
2023-03-28T09:57:04.785Z,36.91
2023-03-28T09:59:41.112Z,36.10
2023-03-28T10:02:33.097Z,36.49
2023-03-28T10:05:30.197Z,36.00
2023-03-28T10:08:05.527Z,34.85
2023-03-28T10:11:20.209Z,35.37
2023-03-28T10:13:49.634Z,33.99
2023-03-28T10:16:31.229Z,36.26
2023-03-28T10:19:02.472Z,37.14
2023-03-28T10:21:37.527Z,33.83
2023-03-28T10:24:16.713Z,34.88
2023-03-28T10:26:50.804Z,35.50
2023-03-28T10:29:17.940Z,38.54
2023-03-28T10:31:49.421Z,36.72
2023-03-28T10:34:30.682Z,35.01
2023-03-28T10:37:03.172Z,34.65
2023-03-28T10:39:59.139Z,32.86
2023-03-28T10:42:51.925Z,35.72
2023-03-28T10:45:42.435Z,32.58
2023-03-28T10:48:12.088Z,33.69
2023-03-28T10:50:47.786Z,32.82
2023-03-28T10:53:39.145Z,31.50
2023-03-28T10:56:18.988Z,31.83
2023-03-28T10:59:25.440Z,30.40
2023-03-28T11:01:57.409Z,31.87
2023-03-28T11:04:56.733Z,29.88
2023-03-28T11:07:46.722Z,28.74
2023-03-28T11:10:38.417Z,26.64
2023-03-28T11:13:27.026Z,26.97
2023-03-28T11:15:57.106Z,27.41
2023-03-28T11:18:58.155Z,25.40
2023-03-28T11:21:41.154Z,25.22
2023-03-28T11:24:48.295Z,23.84
2023-03-28T11:27:47.319Z,22.78
2023-03-28T11:30:32.927Z,23.17
2023-03-28T11:33:48.390Z,21.59
2023-03-28T11:36:25.873Z,20.97
2023-03-28T11:39:21.917Z,23.25
2023-03-28T11:41:49.925Z,24.67
2023-03-28T11:45:03.184Z,22.83
2023-03-28T11:47:37.883Z,23.78
2023-03-28T11:50:17.373Z,24.33
2023-03-28T11:53:18.662Z,26.76
2023-03-28T11:56:04.447Z,28.06
2023-03-28T11:58:59.105Z,24.82
2023-03-28T12:01:29.695Z,25.87
2023-03-28T12:03:59.767Z,25.32
2023-03-28T12:07:03.441Z,25.97
2023-03-28T12:09:59.019Z,27.04
2023-03-28T12:12:31.706Z,28.99
2023-03-28T12:15:19.089Z,27.41
2023-03-28T12:18:46.791Z,23.37
2023-03-28T12:21:43.595Z,21.76
2023-03-28T12:24:34.359Z,21.21
2023-03-28T12:27:25.709Z,19.53
2023-03-28T12:30:22.563Z,19.51
2023-03-28T12:32:59.918Z,19.91
2023-03-28T12:35:54.233Z,18.87
2023-03-28T12:38:35.433Z,19.21
2023-03-28T12:41:21.287Z,18.32
2023-03-28T12:43:56.987Z,19.85
2023-03-28T12:46:34.509Z,20.33
2023-03-28T12:49:05.730Z,20.61
2023-03-28T12:51:37.597Z,19.46
2023-03-28T12:54:16.895Z,19.73
2023-03-28T12:56:48.340Z,19.84
2023-03-28T12:59:40.306Z,19.14
2023-03-28T13:02:37.221Z,19.56
2023-03-28T13:05:49.481Z,18.41
2023-03-28T13:08:24.412Z,19.17
2023-03-28T13:11:35.626Z,18.63
2023-03-28T13:14:09.378Z,20.03
2023-03-28T13:16:46.916Z,19.58
2023-03-28T13:19:18.008Z,21.04
2023-03-28T13:21:55.539Z,18.82
2023-03-28T13:24:25.296Z,18.62
2023-03-28T13:26:56.342Z,19.07
2023-03-28T13:29:25.518Z,20.11
2023-03-28T13:31:55.397Z,17.74
2023-03-28T13:34:24.120Z,17.47
2023-03-28T13:36:54.260Z,17.95
2023-03-28T13:39:25.515Z,16.58
2023-03-28T13:41:52.787Z,16.91
2023-03-28T13:44:31.570Z,16.60
2023-03-28T13:47:00.864Z,17.42
2023-03-28T13:49:30.804Z,18.18
2023-03-28T13:52:04.460Z,19.62
2023-03-28T13:54:31.943Z,21.76
2023-03-28T13:57:05.398Z,24.80
2023-03-28T13:59:38.021Z,24.77
2023-03-28T14:02:39.221Z,24.35
2023-03-28T14:05:21.322Z,25.29
2023-03-28T14:07:48.665Z,26.58
2023-03-28T14:10:34.045Z,30.13
2023-03-28T14:13:28.291Z,27.15
2023-03-28T14:15:56.165Z,27.80
2023-03-28T14:18:34.125Z,28.25
2023-03-28T14:21:01.587Z,27.11
2023-03-28T14:23:32.823Z,27.81
2023-03-28T14:26:07.668Z,27.43
2023-03-28T14:28:40.054Z,27.80
2023-03-28T14:31:12.389Z,28.69
2023-03-28T14:33:39.219Z,29.58
2023-03-28T14:36:06.462Z,30.28
2023-03-28T14:38:38.595Z,30.22
2023-03-28T14:41:08.131Z,31.39
2023-03-28T14:43:35.896Z,31.54
2023-03-28T14:46:06.902Z,31.36
2023-03-28T14:48:34.267Z,31.23
2023-03-28T14:51:04.161Z,32.20
2023-03-28T14:53:35.912Z,32.71
2023-03-28T14:56:11.374Z,33.72
2023-03-28T14:58:40.434Z,33.70
2023-03-28T15:01:07.992Z,34.19
2023-03-28T15:03:39.924Z,32.88
2023-03-28T15:06:08.285Z,32.72
2023-03-28T15:08:39.620Z,31.56
2023-03-28T15:11:19.749Z,31.87
2023-03-28T15:13:49.123Z,32.05
2023-03-28T15:16:23.508Z,32.43
2023-03-28T15:19:09.556Z,32.48
2023-03-28T15:21:37.493Z,33.68
2023-03-28T15:24:05.957Z,33.71
2023-03-28T15:26:38.327Z,34.96
2023-03-28T15:29:07.156Z,35.67
2023-03-28T15:31:38.352Z,34.48
2023-03-28T15:34:10.262Z,34.36
2023-03-28T15:36:37.222Z,33.67
2023-03-28T15:39:27.714Z,35.65
2023-03-28T15:41:59.908Z,34.50
2023-03-28T15:44:29.758Z,35.54
2023-03-28T15:47:21.289Z,36.53
2023-03-28T15:49:51.257Z,34.68
2023-03-28T15:52:20.584Z,35.07
2023-03-28T15:54:52.964Z,36.14
2023-03-28T15:57:21.849Z,36.80
2023-03-28T15:59:54.125Z,35.50
2023-03-28T16:02:32.215Z,36.59
2023-03-28T16:05:11.203Z,36.81
2023-03-28T16:07:43.922Z,36.01
2023-03-28T16:10:13.518Z,35.89
2023-03-28T16:13:00.323Z,35.98
2023-03-28T16:15:46.213Z,35.25
2023-03-28T16:18:25.016Z,35.49
2023-03-28T16:20:56.764Z,36.45
2023-03-28T16:23:23.726Z,37.41
2023-03-28T16:25:50.502Z,36.82
2023-03-28T16:28:18.682Z,37.57
2023-03-28T16:30:46.113Z,37.18
2023-03-28T16:33:13.716Z,35.89
2023-03-28T16:35:40.708Z,38.04
2023-03-28T16:38:07.787Z,37.66
2023-03-28T16:40:34.649Z,37.87
2023-03-28T16:43:01.587Z,38.56
2023-03-28T16:45:30.012Z,38.44
2023-03-28T16:47:57.328Z,39.23
2023-03-28T16:50:24.177Z,37.95
2023-03-28T16:52:51.087Z,37.51
2023-03-28T16:55:18.288Z,38.94
2023-03-28T16:57:45.947Z,39.33
2023-03-28T17:00:18.225Z,39.48
2023-03-28T17:02:47.238Z,39.12
2023-03-28T17:05:15.050Z,37.57
2023-03-28T17:07:41.994Z,38.88
2023-03-28T17:10:09.631Z,38.37
2023-03-28T17:12:37.220Z,39.61
2023-03-28T17:15:04.324Z,39.92
2023-03-28T17:17:32.247Z,40.35
2023-03-28T17:20:00.571Z,40.12
2023-03-28T17:22:27.496Z,39.86
2023-03-28T17:24:57.151Z,40.21
2023-03-28T17:27:24.325Z,40.92
2023-03-28T17:29:51.953Z,41.45
2023-03-28T17:32:19.005Z,42.23
2023-03-28T17:34:46.071Z,42.07
2023-03-28T17:37:12.847Z,42.32
2023-03-28T17:39:39.992Z,42.24
2023-03-28T17:42:07.358Z,42.42
2023-03-28T17:44:34.168Z,42.63
2023-03-28T17:47:01.064Z,43.54
2023-03-28T17:49:28.131Z,43.37
2023-03-28T17:51:56.907Z,43.73
2023-03-28T17:54:25.512Z,43.82
2023-03-28T17:56:53.174Z,44.15
